Observations for LIVERPOOL AIRPORT, United Kingdom (EGGP)

EGGP 200720Z 16004KT CAVOK 08/07 Q1030  
EGGP 200650Z VRB02KT CAVOK 08/07 Q1030  
EGGP 200620Z 16004KT 9999 FEW015 08/07 Q1029
EGGP 200550Z 13003KT 9999 FEW015 08/07 Q1029
EGGP 200520Z VRB03KT 9999 BKN014 08/07 Q1029
EGGP 200450Z VRB02KT 9999 OVC015 08/07 Q1029
EGGP 200420Z 18003KT 9999 BKN016 08/06 Q1029
EGGP 200350Z 14003KT 9999 BKN016 BKN021 07/06 Q1029 
EGGP 200320Z 14002KT 9999 BKN020 07/06 Q1029
EGGP 200250Z VRB02KT 9999 BKN020 09/07 Q1028
EGGP 200220Z 17004KT 9999 FEW020 09/07 Q1028
EGGP 200150Z 20004KT 9999 FEW032 08/07 Q1028
EGGP 200120Z 21003KT 9999 FEW032 09/07 Q1028
EGGP 200050Z 25002KT 9999 BKN032 09/07 Q1028
EGGP 200020Z 22004KT 9999 BKN032 09/07 Q1028
EGGP 192350Z 21004KT 9999 BKN033 09/07 Q1028
EGGP 192320Z 17003KT 9999 BKN031 09/08 Q1028
EGGP 192250Z 17003KT 9999 BKN029 OVC034 09/07 Q1028 
EGGP 192220Z 24003KT 9999 BKN032 09/07 Q1028
EGGP 192150Z 21005KT 9999 SCT034 09/07 Q1027
EGGP 192120Z 24004KT 9999 FEW038 09/07 Q1027
EGGP 192050Z 22004KT 9999 FEW032 10/07 Q1027
EGGP 192020Z 21004KT 9999 FEW016 10/07 Q1027
EGGP 191950Z 27005KT 9999 OVC014 10/08 Q1027
EGGP 191920Z 26006KT 9999 BKN016 OVC018 11/08 Q1027 
EGGP 191850Z 26009KT 9999 BKN019 11/07 Q1027
EGGP 191820Z 26009KT 9999 BKN021 11/08 Q1026
EGGP 191750Z 27011KT 9999 BKN021 11/07 Q1026
EGGP 191720Z 26009KT 9999 FEW022 BKN027 11/08 Q1026 
EGGP 191650Z 25008KT 9999 FEW022 BKN027 12/08 Q1025 
EGGP 191620Z 24008KT 9999 FEW020 BKN026 12/08 Q1025 
EGGP 191550Z 24008KT 9999 FEW021 BKN029 OVC033 13/08 Q1025  
EGGP 191520Z 23008KT 9999 FEW021 BKN027 12/08 Q1025 
EGGP 191450Z 22010KT 9999 SCT023 BKN032 13/08 Q1024 
EGGP 191420Z 23008KT 9999 SCT023 BKN030 12/07 Q1024 
EGGP 191350Z 24009KT 9999 BKN024 12/09 Q1025
EGGP 191250Z 25008KT 9999 BKN024 11/07 Q1025
EGGP 191220Z VRB03KT 9999 BKN024 12/09 Q1025
EGGP 191150Z VRB03KT 9999 FEW018 BKN024 11/09 Q1025 
EGGP 191120Z VRB02KT 9999 SCT015 BKN023 11/09 Q1026 
EGGP 191050Z VRB03KT 9999 SCT015 BKN023 11/08 Q1025 
EGGP 191020Z 29005KT 190V320 9999 SCT012 BKN029 10/08 Q1025 
EGGP 190950Z 25006KT 9999 SCT012 SCT027 10/09 Q1025 
EGGP 190920Z 26007KT 9999 FEW007 SCT015 BKN027 10/09 Q1025  
EGGP 190850Z VRB02KT 9000 FEW006 BKN009 08/07 Q1025 
EGGP 190820Z 18003KT 9000 VCSH SCT008 BKN010 08/07 Q1025
EGGP 190750Z 23003KT 9000 VCSH SCT006 BKN010 08/07 Q1025
EGGP 190720Z 21003KT 7000 VCSH SCT005 BKN009 08/07 Q1025
EGGP 190650Z 21004KT 9000 VCSH SCT008 BKN021 08/07 Q1024